This is the latest recevied weather packets stored in our database for station/object CW79215. If no packets are shown the sender has not sent any weather packets the latest 10 day(s).
| Time | Temp. | Humidity | Pressure | Rain* | Wind** | Luminosity | Snow |
|---|---|---|---|---|---|---|---|
| 1777669633 | 12.78° C | 56% | 1027 hPa | - | - | - | - |
| 1777668733 | 13.33° C | 56% | 1027 hPa | - | - | - | - |
| 1777667833 | 13.33° C | 55% | 1027 hPa | - | - | - | - |
| 1777666933 | 13.89° C | 54% | 1027.1 hPa | - | - | - | - |
| 1777666033 | 14.44° C | 53% | 1027 hPa | - | - | - | - |
| 1777665133 | 14.44° C | 51% | 1026.8 hPa | - | - | - | - |
| 1777664233 | 15° C | 49% | 1026.7 hPa | - | - | - | - |
| 1777663333 | 16.11° C | 47% | 1026.5 hPa | - | - | - | - |
| 1777662433 | 16.67° C | 44% | 1026.5 hPa | - | - | - | - |
| 1777661533 | 17.22° C | 42% | 1026.2 hPa | - | - | - | - |
| 1777660633 | 17.78° C | 44% | 1026 hPa | - | - | - | - |
| 1777659732 | 18.33° C | 45% | 1025.8 hPa | - | - | - | - |
| 1777658833 | 18.89° C | 40% | 1025.6 hPa | - | - | - | - |
| 1777657932 | 19.44° C | 40% | 1025.6 hPa | - | - | - | - |
| 1777657032 | 20° C | 37% | 1025.4 hPa | - | - | - | - |
| 1777656132 | 20.56° C | 35% | 1025.3 hPa | - | - | - | - |
| 1777655232 | 21.11° C | 33% | 1025.2 hPa | - | - | - | - |
| 1777654332 | 21.11° C | 35% | 1025.3 hPa | - | - | - | - |
| 1777653432 | 21.67° C | 33% | 1025.2 hPa | - | - | - | - |
| 1777652532 | 21.67° C | 34% | 1025.2 hPa | - | - | - | - |
| 1777651632 | 23.33° C | 30% | 1025.3 hPa | - | - | - | - |
| 1777650732 | 23.33° C | 30% | 1025.2 hPa | - | - | - | - |
| 1777649832 | 23.89° C | 27% | 1025.2 hPa | - | - | - | - |
| 1777648931 | 23.89° C | 29% | 1025.4 hPa | - | - | - | - |
| 1777648031 | 24.44° C | 29% | 1025.5 hPa | - | - | - | - |
* Rain since midnight (hover to see other rain measurements)
** Current wind speed in m/s (hover to see current wind gust speed)